Time;durP1;ratioP1;P1;durP2;ratioP2;P2;SDS_P1;SDS_P2;PMS_P1;PMS_P2;Temp;Humidity;BMP_temperature;BMP_pressure;BME280_temperature;BME280_humidity;BME280_pressure;Samples;Min_cycle;Max_cycle;Signal;HPM_P1;HPM_P2
2023/09/30 00:01:28;;;;;;;1.20;0.75;;;13.20;41.20;;;;;;5050547;28;20049;-87
2023/09/30 00:03:55;;;;;;;0.90;0.32;;;13.20;53.40;;;;;;5064270;28;20048;-89
2023/09/30 00:06:23;;;;;;;0.80;0.47;;;13.20;65.70;;;;;;5048739;28;20053;-91
2023/09/30 00:08:50;;;;;;;1.00;0.40;;;13.20;96.00;;;;;;5046832;28;20456;-90
2023/09/30 00:11:18;;;;;;;0.95;0.50;;;13.20;97.50;;;;;;5029252;28;20045;-90
2023/09/30 00:13:45;;;;;;;0.65;0.50;;;13.20;93.70;;;;;;5032423;28;20626;-88
2023/09/30 00:16:12;;;;;;;0.75;0.40;;;13.20;97.20;;;;;;5051221;28;20037;-88
2023/09/30 00:18:40;;;;;;;0.43;0.30;;;13.30;99.90;;;;;;5067161;28;20082;-91
2023/09/30 00:21:07;;;;;;;0.43;0.30;;;13.20;97.00;;;;;;5068296;28;20051;-90
2023/09/30 00:23:34;;;;;;;0.93;0.40;;;13.20;97.40;;;;;;5048779;28;20080;-90
2023/09/30 00:26:01;;;;;;;0.47;0.40;;;13.20;99.90;;;;;;5036156;28;20053;-91
2023/09/30 00:28:28;;;;;;;0.50;0.30;;;13.20;99.90;;;;;;5050120;28;20522;-91
2023/09/30 00:30:56;;;;;;;1.20;0.55;;;13.20;99.90;;;;;;5053650;28;20055;-89
2023/09/30 00:33:23;;;;;;;0.38;0.22;;;13.30;99.90;;;;;;5070085;28;20268;-87
2023/09/30 00:35:50;;;;;;;0.88;0.50;;;13.20;99.90;;;;;;5051521;28;20048;-90
2023/09/30 00:38:17;;;;;;;1.17;0.47;;;13.30;99.90;;;;;;5068318;28;20131;-90
2023/09/30 00:40:50;;;;;;;0.55;0.30;;;13.30;99.90;;;;;;5056445;28;20213;-87
2023/09/30 00:43:19;;;;;;;1.77;0.50;;;13.30;99.90;;;;;;5043490;28;20052;-90
2023/09/30 00:45:48;;;;;;;0.82;0.40;;;13.30;99.90;;;;;;5087099;28;20070;-91
2023/09/30 00:48:15;;;;;;;0.40;0.30;;;13.30;99.90;;;;;;5086374;28;20067;-89
2023/09/30 00:50:42;;;;;;;1.20;0.50;;;13.30;99.90;;;;;;5070075;28;20051;-87
2023/09/30 00:53:10;;;;;;;0.45;0.38;;;13.30;99.90;;;;;;5053966;28;20044;-89
2023/09/30 00:55:37;;;;;;;0.43;0.32;;;13.30;99.90;;;;;;5088417;28;20063;-90
2023/09/30 00:58:04;;;;;;;0.93;0.50;;;13.30;99.90;;;;;;5069893;28;20049;-90
2023/09/30 01:00:31;;;;;;;0.57;0.40;;;13.30;99.90;;;;;;5053650;28;20098;-89
2023/09/30 01:03:03;;;;;;;1.38;0.50;;;13.30;99.90;;;;;;5045877;28;20055;-86
2023/09/30 01:05:31;;;;;;;1.85;0.50;;;13.30;99.90;;;;;;5087184;28;20396;-88
2023/09/30 01:07:58;;;;;;;1.13;0.52;;;13.30;99.90;;;;;;5067713;28;20553;-84
2023/09/30 01:10:25;;;;;;;0.60;0.40;;;13.40;99.90;;;;;;5063538;28;20137;-86
2023/09/30 01:12:54;;;;;;;0.82;0.40;;;13.40;99.90;;;;;;5085946;28;20048;-90
2023/09/30 01:15:21;;;;;;;0.20;0.20;;;13.40;99.90;;;;;;5071151;28;20048;-84
2023/09/30 01:17:48;;;;;;;0.75;0.30;;;13.40;99.90;;;;;;5055046;28;20048;-84
2023/09/30 01:20:16;;;;;;;1.25;0.60;;;13.30;99.90;;;;;;5071208;28;20126;-89
2023/09/30 01:22:45;;;;;;;1.38;0.50;;;13.30;99.90;;;;;;5068808;28;20148;-89
2023/09/30 01:25:14;;;;;;;1.17;0.55;;;13.30;99.90;;;;;;5071178;28;20213;-89
2023/09/30 01:27:44;;;;;;;0.68;0.47;;;13.30;99.90;;;;;;5050704;28;20060;-89
2023/09/30 01:30:13;;;;;;;1.08;0.68;;;13.40;99.90;;;;;;5051150;28;20076;-91
2023/09/30 01:32:40;;;;;;;0.80;0.40;;;13.40;99.90;;;;;;5064757;22;20107;-83
2023/09/30 01:35:08;;;;;;;2.75;0.70;;;13.30;99.90;;;;;;5006533;28;20040;-83
2023/09/30 01:37:35;;;;;;;2.50;0.60;;;13.30;99.90;;;;;;5039916;28;20056;-83
2023/09/30 01:40:08;;;;;;;1.88;0.82;;;13.20;99.90;;;;;;5048831;28;20041;-84
2023/09/30 01:42:34;;;;;;;1.60;0.95;;;13.10;99.90;;;;;;5028887;28;20052;-80
2023/09/30 01:45:02;;;;;;;1.38;0.55;;;13.00;99.90;;;;;;5045563;28;20059;-82
2023/09/30 01:47:29;;;;;;;0.57;0.50;;;13.00;99.90;;;;;;5033811;28;20537;-83
2023/09/30 01:49:56;;;;;;;1.38;0.50;;;13.00;1.00;;;;;;5041246;28;20067;-84
2023/09/30 01:52:23;;;;;;;0.50;0.25;;;13.00;1.00;;;;;;5044133;28;20049;-84
2023/09/30 01:54:51;;;;;;;1.27;0.60;;;13.00;1.00;;;;;;5060351;28;20134;-85
2023/09/30 01:57:19;;;;;;;1.48;0.65;;;13.00;1.00;;;;;;5045306;28;20044;-84
2023/09/30 01:59:46;;;;;;;0.85;0.50;;;13.00;1.00;;;;;;5031995;28;20732;-84
2023/09/30 02:02:14;;;;;;;1.67;0.60;;;13.00;1.00;;;;;;5033424;28;20052;-82
2023/09/30 02:04:41;;;;;;;1.35;0.70;;;13.00;1.00;;;;;;5044066;28;20076;-81
2023/09/30 02:07:08;;;;;;;0.60;0.40;;;13.10;1.00;;;;;;5045830;28;20045;-84
2023/09/30 02:09:36;;;;;;;1.75;0.60;;;13.10;1.00;;;;;;5027301;28;20052;-84
2023/09/30 02:12:03;;;;;;;1.30;0.50;;;13.10;1.00;;;;;;5043664;28;20140;-84
2023/09/30 02:14:30;;;;;;;1.30;0.50;;;13.00;1.00;;;;;;5007791;28;20046;-84
2023/09/30 02:16:57;;;;;;;0.90;0.60;;;13.00;1.00;;;;;;5041664;28;20112;-84
2023/09/30 02:19:24;;;;;;;1.75;0.63;;;12.90;1.00;;;;;;5041319;28;20499;-84
2023/09/30 02:21:51;;;;;;;0.88;0.60;;;13.00;1.00;;;;;;5024868;28;20064;-84
2023/09/30 02:24:18;;;;;;;0.85;0.45;;;12.90;14.60;;;;;;5022936;28;20362;-84
2023/09/30 02:26:45;;;;;;;1.40;0.50;;;12.90;53.50;;;;;;5023508;28;20053;-84
2023/09/30 02:29:11;;;;;;;1.23;0.52;;;13.00;95.00;;;;;;5023227;28;20045;-84
2023/09/30 02:31:38;;;;;;;0.93;0.40;;;13.00;99.90;;;;;;5057427;28;20083;-83
2023/09/30 02:34:05;;;;;;;0.95;0.47;;;13.10;99.90;;;;;;5044796;28;20044;-84
2023/09/30 02:36:33;;;;;;;0.90;0.32;;;13.00;82.00;;;;;;5060070;28;20075;-84
2023/09/30 02:39:00;;;;;;;0.93;0.50;;;13.00;71.50;;;;;;5042853;28;20502;-84
2023/09/30 02:41:27;;;;;;;1.05;0.63;;;13.00;70.20;;;;;;5044787;28;20049;-84
2023/09/30 02:43:54;;;;;;;1.25;0.50;;;13.00;92.90;;;;;;5044512;28;20049;-83
2023/09/30 02:46:21;;;;;;;0.98;0.50;;;13.00;85.30;;;;;;5044639;28;20149;-84
2023/09/30 02:48:48;;;;;;;0.55;0.38;;;12.90;99.90;;;;;;5045494;28;20094;-83
2023/09/30 02:51:15;;;;;;;0.77;0.30;;;12.80;99.90;;;;;;5045577;28;20083;-83
2023/09/30 02:53:42;;;;;;;0.88;0.40;;;12.80;99.90;;;;;;5043148;28;20041;-84
2023/09/30 02:56:09;;;;;;;0.77;0.43;;;12.80;99.90;;;;;;5044642;28;20067;-84
2023/09/30 02:58:38;;;;;;;0.65;0.40;;;12.80;99.90;;;;;;5031367;28;20111;-84
2023/09/30 03:01:06;;;;;;;0.90;0.50;;;12.70;99.90;;;;;;5014660;28;20041;-84
2023/09/30 03:03:33;;;;;;;0.80;0.40;;;12.70;99.90;;;;;;5037162;28;20045;-84
2023/09/30 03:06:00;;;;;;;0.95;0.50;;;12.70;99.90;;;;;;5046121;28;20040;-83
2023/09/30 03:08:27;;;;;;;0.43;0.25;;;12.70;99.90;;;;;;5059962;28;20470;-84
2023/09/30 03:10:54;;;;;;;0.82;0.40;;;12.80;99.90;;;;;;5044188;28;20125;-84
2023/09/30 03:13:21;;;;;;;0.85;0.35;;;12.80;99.90;;;;;;5060335;28;20053;-84
2023/09/30 03:15:50;;;;;;;1.33;0.60;;;12.70;99.90;;;;;;5060906;28;20168;-84
2023/09/30 03:18:17;;;;;;;0.45;0.30;;;12.70;99.90;;;;;;5045569;28;20086;-84
2023/09/30 03:20:44;;;;;;;1.20;0.50;;;12.70;99.90;;;;;;5064500;28;20045;-84
2023/09/30 03:23:14;;;;;;;0.65;0.20;;;12.70;99.90;;;;;;5048284;28;20443;-84
2023/09/30 03:25:42;;;;;;;1.52;0.50;;;12.70;99.90;;;;;;5032273;28;20048;-84
2023/09/30 03:28:09;;;;;;;0.63;0.20;;;12.70;1.00;;;;;;5047709;28;20098;-84
2023/09/30 03:30:35;;;;;;;1.00;0.38;;;12.60;1.00;;;;;;5049146;28;20069;-84
2023/09/30 03:33:04;;;;;;;0.43;0.20;;;12.60;1.00;;;;;;5031731;28;20441;-84
2023/09/30 03:35:32;;;;;;;0.68;0.40;;;12.60;1.00;;;;;;5049997;28;20053;-84
2023/09/30 03:37:59;;;;;;;1.00;0.60;;;12.60;1.00;;;;;;5049164;28;20209;-84
2023/09/30 03:40:28;;;;;;;0.88;0.50;;;12.60;1.00;;;;;;5048198;28;20484;-84
2023/09/30 03:42:55;;;;;;;0.90;0.50;;;12.60;88.40;;;;;;5048664;28;20135;-84
2023/09/30 03:45:22;;;;;;;0.85;0.30;;;12.50;50.30;;;;;;5049224;28;20076;-84
2023/09/30 03:47:49;;;;;;;0.75;0.40;;;12.50;99.90;;;;;;5043972;28;20137;-84
2023/09/30 03:50:16;;;;;;;1.15;0.60;;;12.50;99.90;;;;;;5014011;28;20092;-84
2023/09/30 03:52:47;;;;;;;1.27;0.60;;;12.40;99.90;;;;;;5047518;28;20049;-83
2023/09/30 03:55:15;;;;;;;1.25;0.50;;;12.40;99.90;;;;;;5062655;28;20128;-84
2023/09/30 03:57:45;;;;;;;0.65;0.40;;;12.40;99.90;;;;;;5047078;28;20041;-83
2023/09/30 04:00:16;;;;;;;1.33;0.60;;;12.40;99.90;;;;;;5047156;28;20049;-84
2023/09/30 04:02:43;;;;;;;0.55;0.40;;;12.40;99.90;;;;;;5047736;28;20056;-83
2023/09/30 04:05:13;;;;;;;0.98;0.60;;;12.30;99.90;;;;;;5064032;28;20045;-84
2023/09/30 04:07:41;;;;;;;0.70;0.55;;;12.20;99.90;;;;;;5048668;28;20071;-84
2023/09/30 04:10:09;;;;;;;0.93;0.40;;;12.20;99.90;;;;;;5046262;28;20048;-83
2023/09/30 04:12:36;;;;;;;0.88;0.43;;;12.10;99.90;;;;;;5047006;28;20049;-84
2023/09/30 04:15:05;;;;;;;0.50;0.40;;;12.10;99.90;;;;;;5043593;28;20415;-84
2023/09/30 04:17:32;;;;;;;0.40;0.25;;;12.00;99.90;;;;;;5028515;28;20055;-84
2023/09/30 04:19:59;;;;;;;0.60;0.40;;;12.00;99.90;;;;;;5063580;28;20056;-84
2023/09/30 04:22:28;;;;;;;1.50;0.85;;;12.00;1.00;;;;;;5047202;28;20399;-84
2023/09/30 04:24:55;;;;;;;1.20;0.60;;;11.90;1.00;;;;;;5050137;28;20083;-83
2023/09/30 04:27:22;;;;;;;1.15;0.43;;;11.90;1.00;;;;;;5046762;28;20044;-84
2023/09/30 04:29:49;;;;;;;0.73;0.40;;;11.90;1.00;;;;;;5046824;28;20156;-84
2023/09/30 04:32:16;;;;;;;0.50;0.45;;;11.90;71.40;;;;;;5047126;28;20145;-84
2023/09/30 04:34:43;;;;;;;0.68;0.38;;;11.90;99.90;;;;;;5026661;28;20072;-84
2023/09/30 04:37:13;;;;;;;0.30;0.20;;;11.90;99.90;;;;;;5028571;28;20277;-85
2023/09/30 04:39:40;;;;;;;0.43;0.30;;;11.90;99.90;;;;;;5028772;28;20290;-84
2023/09/30 04:42:10;;;;;;;0.85;0.57;;;11.90;99.90;;;;;;5046674;28;20105;-84
2023/09/30 04:44:38;;;;;;;0.90;0.47;;;12.00;99.90;;;;;;5048060;28;20143;-84
2023/09/30 04:47:05;;;;;;;0.93;0.50;;;12.00;99.90;;;;;;5047183;28;20064;-84
2023/09/30 04:49:32;;;;;;;0.65;0.30;;;12.00;99.90;;;;;;5039675;28;20069;-84
2023/09/30 04:51:58;;;;;;;0.45;0.30;;;12.00;99.90;;;;;;5042018;28;20293;-85
2023/09/30 04:54:25;;;;;;;1.10;0.35;;;12.10;99.90;;;;;;5040228;28;20130;-84
2023/09/30 04:56:52;;;;;;;1.63;0.47;;;12.10;99.90;;;;;;5041158;28;20080;-84
2023/09/30 04:59:19;;;;;;;0.63;0.35;;;12.10;99.90;;;;;;5035552;28;20052;-84
2023/09/30 05:01:46;;;;;;;1.02;0.50;;;12.20;99.90;;;;;;5059769;28;20501;-84
2023/09/30 05:04:13;;;;;;;0.95;0.40;;;12.20;99.90;;;;;;5057102;28;20048;-86
2023/09/30 05:06:41;;;;;;;1.80;0.73;;;12.10;99.90;;;;;;5041858;28;20084;-84
2023/09/30 05:09:08;;;;;;;0.60;0.50;;;12.20;99.90;;;;;;5041538;28;20466;-84
2023/09/30 05:11:35;;;;;;;1.70;0.57;;;12.20;99.90;;;;;;5031191;28;20435;-84
2023/09/30 05:14:05;;;;;;;0.40;0.40;;;12.20;99.90;;;;;;5046320;28;20191;-84
2023/09/30 05:16:32;;;;;;;0.98;0.60;;;12.30;99.90;;;;;;5039257;28;20052;-85
2023/09/30 05:18:59;;;;;;;0.70;0.50;;;12.30;99.90;;;;;;5045477;28;20415;-84
2023/09/30 05:21:26;;;;;;;0.43;0.30;;;12.30;99.90;;;;;;5041625;28;20385;-84
2023/09/30 05:23:53;;;;;;;1.15;0.57;;;12.30;99.90;;;;;;5056546;28;20349;-84
2023/09/30 05:26:20;;;;;;;0.55;0.35;;;12.30;99.90;;;;;;5041813;28;20461;-84
2023/09/30 05:28:47;;;;;;;0.88;0.47;;;12.30;99.90;;;;;;5057575;28;20296;-84
2023/09/30 05:31:14;;;;;;;1.10;0.50;;;12.20;99.90;;;;;;5042384;28;20041;-84
2023/09/30 05:33:41;;;;;;;1.02;0.50;;;12.20;99.90;;;;;;5056781;28;20122;-84
2023/09/30 05:36:08;;;;;;;1.58;0.45;;;12.30;99.90;;;;;;5041559;28;20304;-84
2023/09/30 05:38:36;;;;;;;0.63;0.40;;;12.20;99.90;;;;;;5041219;28;20490;-84
2023/09/30 05:41:03;;;;;;;0.35;0.30;;;12.30;99.90;;;;;;5038764;28;20506;-84
2023/09/30 05:43:30;;;;;;;0.98;0.47;;;12.30;99.90;;;;;;5041439;28;20080;-84
2023/09/30 05:45:58;;;;;;;0.30;0.22;;;12.30;99.90;;;;;;5043680;28;20088;-84
2023/09/30 05:48:28;;;;;;;0.50;0.30;;;12.20;99.90;;;;;;5046497;28;20057;-83
2023/09/30 05:50:55;;;;;;;0.90;0.38;;;12.20;99.90;;;;;;5040098;28;20135;-84
2023/09/30 05:53:22;;;;;;;0.30;0.25;;;12.20;99.90;;;;;;5027007;28;20063;-84
2023/09/30 05:55:50;;;;;;;0.10;0.10;;;12.20;99.90;;;;;;5061724;28;20132;-83
2023/09/30 05:58:17;;;;;;;0.63;0.20;;;12.10;99.90;;;;;;5044837;28;20351;-84
2023/09/30 06:00:44;;;;;;;0.80;0.30;;;12.10;99.90;;;;;;5061478;28;20132;-84
2023/09/30 06:03:11;;;;;;;0.20;0.20;;;12.10;99.90;;;;;;5054498;28;20061;-86
2023/09/30 06:05:41;;;;;;;0.17;0.17;;;12.20;99.90;;;;;;5030829;28;20052;-84
2023/09/30 06:08:13;;;;;;;0.73;0.30;;;12.20;99.90;;;;;;5050600;28;20053;-85
2023/09/30 06:10:43;;;;;;;0.43;0.20;;;12.20;99.90;;;;;;5056106;28;20483;-85
2023/09/30 06:13:11;;;;;;;0.73;0.30;;;12.20;99.90;;;;;;5062086;28;20147;-85
2023/09/30 06:15:41;;;;;;;0.22;0.22;;;12.20;99.90;;;;;;5025365;28;20244;-85
2023/09/30 06:18:13;;;;;;;0.45;0.30;;;12.20;99.90;;;;;;5038745;28;20052;-84
2023/09/30 06:20:41;;;;;;;0.28;0.25;;;12.20;99.90;;;;;;5036188;28;20045;-85
2023/09/30 06:23:09;;;;;;;0.45;0.30;;;12.20;99.90;;;;;;5022971;28;20080;-83
2023/09/30 06:25:37;;;;;;;0.20;0.20;;;12.30;1.00;;;;;;5023294;28;20045;-84
2023/09/30 06:28:04;;;;;;;0.30;0.20;;;12.30;1.00;;;;;;5037837;28;20056;-84
2023/09/30 06:30:33;;;;;;;0.30;0.20;;;12.40;1.00;;;;;;5053772;28;20114;-86
2023/09/30 06:33:00;;;;;;;0.30;0.30;;;12.40;99.90;;;;;;5027458;28;20160;-84
2023/09/30 06:35:30;;;;;;;0.35;0.17;;;12.50;99.90;;;;;;5057840;28;20053;-83
2023/09/30 06:37:57;;;;;;;0.22;0.20;;;12.50;99.90;;;;;;5041106;28;20045;-83
2023/09/30 06:40:24;;;;;;;0.40;0.30;;;12.50;99.90;;;;;;5045778;28;20068;-82
2023/09/30 06:42:52;;;;;;;0.57;0.22;;;12.50;99.90;;;;;;5057733;28;20124;-84
2023/09/30 06:45:19;;;;;;;0.38;0.30;;;12.60;99.90;;;;;;5044760;28;20132;-83
2023/09/30 06:47:47;;;;;;;1.38;0.43;;;12.60;99.90;;;;;;5043955;28;20243;-84
2023/09/30 06:50:16;;;;;;;0.60;0.50;;;12.70;99.90;;;;;;5043241;28;20095;-84
2023/09/30 06:52:49;;;;;;;0.20;0.20;;;12.80;99.90;;;;;;5044140;28;20060;-83
2023/09/30 06:55:16;;;;;;;0.60;0.30;;;12.80;98.00;;;;;;5038953;28;20045;-84
2023/09/30 06:57:44;;;;;;;0.30;0.28;;;12.90;1.00;;;;;;5025119;28;20099;-84
2023/09/30 07:00:13;;;;;;;0.55;0.40;;;12.80;1.00;;;;;;5037766;28;20044;-84
2023/09/30 07:02:41;;;;;;;0.30;0.30;;;12.90;99.90;;;;;;5043029;28;20136;-83
2023/09/30 07:05:12;;;;;;;0.38;0.22;;;12.90;43.10;;;;;;5022445;28;20056;-83
2023/09/30 07:07:40;;;;;;;0.63;0.30;;;12.90;99.90;;;;;;5038686;28;20383;-83
2023/09/30 07:10:08;;;;;;;0.45;0.28;;;12.90;99.90;;;;;;5052514;28;20475;-84
2023/09/30 07:12:35;;;;;;;0.50;0.30;;;12.90;99.90;;;;;;5045566;28;20091;-83
2023/09/30 07:15:06;;;;;;;0.22;0.20;;;12.90;99.90;;;;;;5060422;28;20140;-84
2023/09/30 07:17:35;;;;;;;0.77;0.40;;;12.90;99.90;;;;;;5045782;28;20168;-84
2023/09/30 07:20:02;;;;;;;0.60;0.30;;;13.00;99.90;;;;;;5072778;28;20060;-84
2023/09/30 07:22:29;;;;;;;0.70;0.30;;;13.00;99.90;;;;;;5064869;28;20122;-83
2023/09/30 07:24:59;;;;;;;0.50;0.20;;;13.00;99.90;;;;;;5027600;28;20076;-82
2023/09/30 07:27:26;;;;;;;0.47;0.20;;;13.00;99.90;;;;;;5060697;28;20102;-82
2023/09/30 07:29:54;;;;;;;0.30;0.20;;;13.00;99.90;;;;;;5045517;28;20048;-83
2023/09/30 07:32:23;;;;;;;0.20;0.20;;;13.10;99.90;;;;;;5060155;28;20380;-84
2023/09/30 07:34:50;;;;;;;0.20;0.20;;;13.10;99.90;;;;;;5055871;28;20052;-83
2023/09/30 07:37:18;;;;;;;1.30;0.30;;;13.10;99.90;;;;;;5056969;28;20055;-82
2023/09/30 07:39:45;;;;;;;0.55;0.40;;;13.10;99.90;;;;;;5040988;28;20060;-83
2023/09/30 07:42:12;;;;;;;0.43;0.30;;;13.20;99.90;;;;;;5042003;28;20135;-83
2023/09/30 07:44:39;;;;;;;0.17;0.17;;;13.20;99.90;;;;;;5044751;28;20138;-83
2023/09/30 07:47:06;;;;;;;0.20;0.20;;;13.30;99.90;;;;;;5040835;28;20215;-83
2023/09/30 07:49:33;;;;;;;0.40;0.20;;;13.40;99.90;;;;;;5023688;28;20072;-83
2023/09/30 07:51:59;;;;;;;0.28;0.20;;;13.40;49.40;;;;;;5040235;28;20458;-84
2023/09/30 07:54:27;;;;;;;0.80;0.20;;;13.40;1.00;;;;;;5038308;28;20510;-83
2023/09/30 07:56:58;;;;;;;0.28;0.20;;;13.50;1.00;;;;;;5044687;28;20559;-83
2023/09/30 07:59:26;;;;;;;0.25;0.20;;;13.50;1.00;;;;;;5043691;28;20412;-83
2023/09/30 08:01:53;;;;;;;0.73;0.30;;;13.60;1.00;;;;;;5060232;28;20049;-83
2023/09/30 08:04:20;;;;;;;0.55;0.25;;;13.60;1.00;;;;;;5044710;28;20044;-83
2023/09/30 08:06:48;;;;;;;1.17;0.50;;;13.70;1.00;;;;;;5046644;28;20160;-84
2023/09/30 08:09:15;;;;;;;0.30;0.30;;;13.70;1.00;;;;;;5062561;28;20524;-83
2023/09/30 08:11:44;;;;;;;1.27;0.40;;;13.80;99.90;;;;;;5048387;28;20051;-83
2023/09/30 08:14:11;;;;;;;0.22;0.20;;;13.90;99.90;;;;;;5052400;28;20104;-83
2023/09/30 08:16:38;;;;;;;0.82;0.30;;;13.90;96.50;;;;;;5028942;28;20049;-82
2023/09/30 08:19:05;;;;;;;0.50;0.30;;;14.00;6.60;;;;;;5043149;28;20065;-83
2023/09/30 08:21:32;;;;;;;0.47;0.40;;;14.10;1.00;;;;;;5027161;28;20148;-83
2023/09/30 08:23:59;;;;;;;0.20;0.17;;;14.10;1.00;;;;;;5042421;28;20128;-83
2023/09/30 08:26:26;;;;;;;0.32;0.22;;;14.20;1.00;;;;;;5043217;28;20049;-83
2023/09/30 08:28:53;;;;;;;0.60;0.32;;;14.20;99.90;;;;;;5044028;28;20113;-82
2023/09/30 08:31:21;;;;;;;0.73;0.30;;;14.30;99.90;;;;;;5062996;28;20076;-82
2023/09/30 08:33:48;;;;;;;1.05;0.45;;;14.30;99.90;;;;;;5048106;28;20084;-83
2023/09/30 08:36:15;;;;;;;1.40;0.57;;;14.40;99.90;;;;;;5046549;28;20055;-82
2023/09/30 08:38:43;;;;;;;0.50;0.30;;;14.50;99.90;;;;;;5046376;28;20068;-81
2023/09/30 08:41:11;;;;;;;0.20;0.20;;;14.50;99.90;;;;;;5043651;28;20125;-83
2023/09/30 08:43:38;;;;;;;1.27;0.40;;;14.60;99.90;;;;;;5042184;28;20549;-83
2023/09/30 08:46:07;;;;;;;1.00;0.32;;;14.70;99.90;;;;;;5043042;28;20109;-83
2023/09/30 08:48:34;;;;;;;0.63;0.38;;;14.80;99.90;;;;;;5042956;28;20491;-83
2023/09/30 08:51:01;;;;;;;0.50;0.25;;;14.80;66.00;;;;;;5028137;28;20403;-83
2023/09/30 08:53:29;;;;;;;0.65;0.40;;;14.90;55.40;;;;;;5041631;28;20483;-83
2023/09/30 08:55:56;;;;;;;0.30;0.20;;;15.00;45.80;;;;;;5042515;28;20057;-81
2023/09/30 08:58:24;;;;;;;0.93;0.40;;;15.10;51.60;;;;;;5042205;28;20533;-82
2023/09/30 09:00:52;;;;;;;0.32;0.30;;;15.10;36.50;;;;;;5027138;28;20572;-82
2023/09/30 09:03:19;;;;;;;0.73;0.40;;;15.20;33.60;;;;;;5042258;28;20128;-83
2023/09/30 09:05:56;;;;;;;0.73;0.40;;;15.30;9.80;;;;;;5042580;28;20140;-83
2023/09/30 09:08:25;;;;;;;0.52;0.38;;;15.40;1.00;;;;;;5041398;28;20057;-83
2023/09/30 09:10:59;;;;;;;0.17;0.17;;;15.50;1.00;;;;;;5042294;28;20052;-83
2023/09/30 09:13:26;;;;;;;0.70;0.30;;;15.60;1.00;;;;;;5041276;28;20064;-83
2023/09/30 09:16:08;;;;;;;0.52;0.30;;;15.70;1.00;;;;;;5042218;28;20061;-83
2023/09/30 09:18:36;;;;;;;0.55;0.22;;;15.80;1.00;;;;;;5025946;28;20049;-83
2023/09/30 09:21:17;;;;;;;0.47;0.20;;;15.90;1.00;;;;;;5042033;28;20119;-84
2023/09/30 09:23:45;;;;;;;0.50;0.40;;;16.00;1.00;;;;;;5046641;28;20049;-84
2023/09/30 09:26:34;;;;;;;0.82;0.45;;;16.10;1.00;;;;;;5045767;28;20091;-84
2023/09/30 09:29:03;;;;;;;0.22;0.20;;;16.30;1.00;;;;;;5046606;28;20430;-84
2023/09/30 09:31:34;;;;;;;0.35;0.20;;;16.30;1.00;;;;;;5061979;28;20178;-83
2023/09/30 09:34:06;;;;;;;0.85;0.40;;;16.40;1.00;;;;;;5054662;28;20123;-84
2023/09/30 09:36:40;;;;;;;0.57;0.30;;;16.60;1.00;;;;;;5041276;28;20057;-83
2023/09/30 09:39:07;;;;;;;0.77;0.30;;;16.70;1.00;;;;;;5025966;28;20045;-83
2023/09/30 09:41:52;;;;;;;0.43;0.20;;;16.90;1.00;;;;;;5041939;28;20447;-83
2023/09/30 09:44:20;;;;;;;1.30;0.28;;;17.20;1.00;;;;;;5034768;28;20102;-83
2023/09/30 09:46:47;;;;;;;1.10;0.30;;;17.40;1.00;;;;;;5045289;28;20049;-84
2023/09/30 09:49:16;;;;;;;0.52;0.30;;;17.50;1.00;;;;;;5061881;28;20112;-83
2023/09/30 09:51:46;;;;;;;0.73;0.35;;;17.50;1.00;;;;;;5045552;28;20186;-83
2023/09/30 09:54:15;;;;;;;0.43;0.32;;;17.50;1.00;;;;;;5060188;28;20061;-84
2023/09/30 09:56:45;;;;;;;0.38;0.38;;;17.50;1.00;;;;;;5044947;28;20124;-84
2023/09/30 09:59:13;;;;;;;0.52;0.30;;;17.60;1.00;;;;;;5061085;28;20084;-82
2023/09/30 10:01:45;;;;;;;0.30;0.20;;;17.70;1.00;;;;;;5060014;28;20515;-84
2023/09/30 10:04:15;;;;;;;1.17;0.38;;;17.80;1.00;;;;;;5045929;28;20077;-84
2023/09/30 10:06:44;;;;;;;0.20;0.20;;;17.90;1.00;;;;;;5038645;28;20089;-84
2023/09/30 10:09:11;;;;;;;0.95;0.30;;;18.00;1.00;;;;;;5040249;28;20053;-83
2023/09/30 10:11:41;;;;;;;0.47;0.30;;;18.00;1.00;;;;;;5041907;28;20351;-84
2023/09/30 10:14:14;;;;;;;0.30;0.30;;;18.10;1.00;;;;;;5043058;28;20058;-84
2023/09/30 10:16:44;;;;;;;0.20;0.20;;;18.10;1.00;;;;;;5025598;28;20049;-85
2023/09/30 10:19:12;;;;;;;0.40;0.30;;;18.10;1.00;;;;;;5026516;28;20067;-83
2023/09/30 10:21:39;;;;;;;0.30;0.30;;;18.10;1.00;;;;;;5026732;28;20053;-85
2023/09/30 10:24:25;;;;;;;0.45;0.30;;;18.10;1.00;;;;;;5021610;28;20161;-85
2023/09/30 10:27:31;;;;;;;0.30;0.30;;;18.20;1.00;;;;;;5022863;28;20128;-85
2023/09/30 10:30:15;;;;;;;0.13;0.10;;;18.20;1.00;;;;;;5025727;28;20057;-85
2023/09/30 10:32:51;;;;;;;0.20;0.20;;;18.30;1.00;;;;;;5026471;28;20057;-85
2023/09/30 10:35:27;;;;;;;1.08;0.40;;;18.50;1.00;;;;;;5045370;28;20053;-85
2023/09/30 10:38:26;;;;;;;0.20;0.20;;;18.70;1.00;;;;;;5046089;28;20060;-86
2023/09/30 10:40:57;;;;;;;0.30;0.30;;;18.90;1.00;;;;;;5048781;28;20141;-84
2023/09/30 10:43:41;;;;;;;0.52;0.40;;;19.20;1.00;;;;;;5042857;28;20053;-85
2023/09/30 10:46:40;;;;;;;0.20;0.20;;;19.50;1.00;;;;;;5046229;28;20057;-84
2023/09/30 10:49:22;;;;;;;0.30;0.28;;;19.70;1.00;;;;;;5050125;28;20057;-85
2023/09/30 10:52:02;;;;;;;0.20;0.20;;;19.90;1.00;;;;;;5068492;28;20054;-85
2023/09/30 10:54:31;;;;;;;0.65;0.38;;;20.10;1.00;;;;;;5051401;28;20251;-85
2023/09/30 10:56:59;;;;;;;0.32;0.22;;;20.20;1.00;;;;;;5057403;28;20064;-85
2023/09/30 10:59:27;;;;;;;0.73;0.40;;;20.20;1.00;;;;;;5061332;28;20045;-84
2023/09/30 11:01:54;;;;;;;0.50;0.30;;;20.30;1.00;;;;;;5079768;28;20049;-85
2023/09/30 11:04:22;;;;;;;0.40;0.30;;;20.30;1.00;;;;;;5050170;28;20073;-86
2023/09/30 11:06:51;;;;;;;0.38;0.30;;;20.30;1.00;;;;;;5061281;28;20042;-85
2023/09/30 11:09:19;;;;;;;0.45;0.30;;;20.20;1.00;;;;;;5042770;28;20041;-85
2023/09/30 11:11:51;;;;;;;0.70;0.35;;;20.30;1.00;;;;;;5044236;28;20104;-86
2023/09/30 11:14:20;;;;;;;0.57;0.28;;;20.40;1.00;;;;;;5056799;28;20045;-85
2023/09/30 11:16:48;;;;;;;0.75;0.28;;;20.60;1.00;;;;;;5061765;28;20049;-85
2023/09/30 11:19:15;;;;;;;0.30;0.20;;;20.60;1.00;;;;;;5072524;28;20127;-84
2023/09/30 11:21:43;;;;;;;0.63;0.30;;;20.60;1.00;;;;;;5058306;28;20067;-83
2023/09/30 11:24:11;;;;;;;0.45;0.20;;;20.70;1.00;;;;;;5069601;28;20105;-85
2023/09/30 11:26:38;;;;;;;0.30;0.30;;;20.70;1.00;;;;;;5054525;28;20057;-84
2023/09/30 11:29:07;;;;;;;0.50;0.30;;;20.70;1.00;;;;;;5020949;28;20053;-84
2023/09/30 11:31:37;;;;;;;0.85;0.25;;;20.70;1.00;;;;;;5019157;28;20045;-83
2023/09/30 11:34:04;;;;;;;0.60;0.40;;;20.80;1.00;;;;;;5031079;28;20053;-81
2023/09/30 11:36:34;;;;;;;0.50;0.30;;;20.80;1.00;;;;;;5039553;28;20147;-80
2023/09/30 11:39:04;;;;;;;0.95;0.40;;;20.80;1.00;;;;;;5038056;28;20045;-81
2023/09/30 11:41:39;;;;;;;1.00;0.50;;;20.90;1.00;;;;;;5039378;28;20107;-82
2023/09/30 11:44:11;;;;;;;0.70;0.45;;;21.20;1.00;;;;;;5023154;28;20236;-83
2023/09/30 11:46:55;;;;;;;0.80;0.40;;;21.50;1.00;;;;;;5037990;28;20476;-82
2023/09/30 11:49:38;;;;;;;0.28;0.28;;;21.80;1.00;;;;;;5037798;28;20065;-84
2023/09/30 11:52:12;;;;;;;0.28;0.28;;;22.00;1.00;;;;;;5022624;28;20243;-85
2023/09/30 11:54:46;;;;;;;0.90;0.40;;;22.10;1.00;;;;;;5065798;28;20048;-85
2023/09/30 11:57:18;;;;;;;1.00;0.45;;;22.00;1.00;;;;;;5059764;28;20071;-83
2023/09/30 11:59:45;;;;;;;0.70;0.40;;;21.90;1.00;;;;;;5055720;28;20223;-83
2023/09/30 12:02:14;;;;;;;0.60;0.40;;;22.00;1.00;;;;;;5038090;28;20045;-80
2023/09/30 12:04:42;;;;;;;0.45;0.30;;;22.10;1.00;;;;;;5037060;28;20491;-84
2023/09/30 12:07:10;;;;;;;0.90;0.40;;;22.00;1.00;;;;;;5022701;28;20127;-84
2023/09/30 12:09:37;;;;;;;0.30;0.30;;;22.00;1.00;;;;;;5023686;28;20053;-83
2023/09/30 12:12:05;;;;;;;0.32;0.20;;;21.90;1.00;;;;;;5041561;28;20067;-84
2023/09/30 12:14:32;;;;;;;0.32;0.20;;;21.80;1.00;;;;;;5042573;28;20129;-86
2023/09/30 12:16:59;;;;;;;0.63;0.30;;;21.80;1.00;;;;;;5043091;28;20080;-85
2023/09/30 12:19:26;;;;;;;0.93;0.40;;;21.80;1.00;;;;;;5043993;28;20053;-85
2023/09/30 12:21:53;;;;;;;0.30;0.30;;;22.00;1.00;;;;;;5058109;28;20469;-84
2023/09/30 12:24:21;;;;;;;0.38;0.30;;;22.10;1.00;;;;;;5043252;28;20053;-86
2023/09/30 12:26:49;;;;;;;0.80;0.30;;;22.10;1.00;;;;;;5041193;28;20258;-85
2023/09/30 12:29:17;;;;;;;0.90;0.38;;;22.20;1.00;;;;;;5057682;28;20131;-85
2023/09/30 12:31:45;;;;;;;2.00;0.70;;;22.20;1.00;;;;;;5057818;28;20053;-85
2023/09/30 12:34:20;;;;;;;0.95;0.52;;;22.20;1.00;;;;;;5042118;28;20577;-85
2023/09/30 12:36:47;;;;;;;0.65;0.30;;;22.20;1.00;;;;;;5042352;28;20076;-85
2023/09/30 12:39:16;;;;;;;1.02;0.40;;;22.40;1.00;;;;;;5039976;28;20098;-84
2023/09/30 12:41:44;;;;;;;1.38;0.45;;;22.70;1.00;;;;;;5057129;28;20079;-84
2023/09/30 12:44:13;;;;;;;1.00;0.50;;;23.00;1.00;;;;;;5058685;28;20090;-85
2023/09/30 12:46:40;;;;;;;0.77;0.40;;;23.20;1.00;;;;;;5042778;28;20353;-85
2023/09/30 12:49:07;;;;;;;1.88;0.50;;;23.20;1.00;;;;;;5041272;28;20128;-85
2023/09/30 12:51:34;;;;;;;1.73;0.50;;;23.30;1.00;;;;;;5056479;28;20057;-84
2023/09/30 12:54:01;;;;;;;0.60;0.50;;;23.50;1.00;;;;;;5041004;28;20134;-84
2023/09/30 12:56:31;;;;;;;1.45;0.70;;;24.00;1.00;;;;;;5038984;28;20357;-83
2023/09/30 12:58:58;;;;;;;1.33;0.80;;;24.10;1.00;;;;;;5042151;28;20711;-85